This is the latest recevied weather packets stored in our database for station/object TA3MHA. If no packets are shown the sender has not sent any weather packets the latest 10 day(s).
| Time | Temp. | Humidity | Pressure | Rain* | Wind** | Luminosity | Snow |
|---|---|---|---|---|---|---|---|
| 1777079101 | 7.22° C | 67% | - | 0 mm | - | 0 W/m² | - |
| 1777078801 | 6.67° C | 68% | - | 0 mm | - | 0 W/m² | - |
| 1777078501 | 6.11° C | 70% | - | 0 mm | - | 0 W/m² | - |
| 1777078201 | 6.11° C | 69% | - | 0 mm | - | 0 W/m² | - |
| 1777077901 | 6.67° C | 68% | - | 0 mm | - | 0 W/m² | - |
| 1777077601 | 6.67° C | 69% | - | 0 mm | - | 0 W/m² | - |
| 1777077301 | 6.67° C | 68% | - | 0 mm | - | 0 W/m² | - |
| 1777077001 | 7.22° C | 67% | - | 0 mm | - | 0 W/m² | - |
| 1777076700 | 7.22° C | 66% | - | 0 mm | - | 0 W/m² | - |
| 1777076401 | 7.78° C | 65% | - | 0 mm | - | 0 W/m² | - |
| 1777076101 | 7.78° C | 65% | - | 0 mm | - | 0 W/m² | - |
| 1777075800 | 7.22° C | 65% | - | 0 mm | - | 0 W/m² | - |
| 1777075500 | 7.22° C | 65% | - | 0 mm | - | 0 W/m² | - |
| 1777075201 | 7.22° C | 65% | - | 0 mm | - | 0 W/m² | - |
| 1777074901 | 6.67° C | 68% | - | 0 mm | - | 0 W/m² | - |
| 1777074601 | 6.67° C | 68% | - | 0 mm | - | 0 W/m² | - |
| 1777074300 | 6.67° C | 68% | - | 0 mm | - | 0 W/m² | - |
| 1777074000 | 6.67° C | 67% | - | 0 mm | - | 0 W/m² | - |
| 1777073700 | 7.78° C | 65% | - | 0 mm | - | 0 W/m² | - |
| 1777073401 | 7.78° C | 64% | - | 0 mm | - | 0 W/m² | - |
| 1777073101 | 7.78° C | 64% | - | 0 mm | - | 0 W/m² | - |
| 1777072801 | 7.78° C | 65% | - | 0 mm | - | 0 W/m² | - |
| 1777072501 | 7.78° C | 63% | - | 0 mm | - | 0 W/m² | - |
| 1777072200 | 7.78° C | 63% | - | 0 mm | - | 0 W/m² | - |
| 1777071901 | 7.22° C | 66% | - | 0 mm | - | 0 W/m² | - |
* Rain latest hour (hover to see other rain measurements)
** Current wind speed in m/s (hover to see current wind gust speed)